Mullinville, KS (67109)

12:28 PM CDT on May 28, 2015 (GMT -0500)
Backyard Weather | | Change Station
CLOSE
Current Station
Personal Weather Station
Location: Kinsley, KS
Elevation: 2168 ft
Nearby Weather Stations
Active Advisory: Flash Flood Watch

Elev 2168 ft 37.93 °N, 99.41 °W | Updated 10 seconds ago

Partly Cloudy
Partly Cloudy
71.5 °F
Feels Like 75 °F
N
0.0
Wind Variable Wind from NNE
Gusts 4.0 mph

Today
High -- | Low -- °F
--% Chance of Precip.
Yesterday
High -- | Low -- °F
Precip. -- in
6:19 AM 8:50 PM
Waxing Gibbous, 77% visible
Pressure 29.97 in
Visibility 10.0 miles
Clouds Clear
Heat Index 75 °F
Dew Point 60 °F
Humidity 66%
Rainfall 0.00 in
Snow Depth Not available.
UV 11 out of 12
Pollen 4.20 out of 12
Air Quality Not available.
Flu Activity No Activity
METAR KDDC 281652Z AUTO 09006KT 10SM CLR 22/14 A3003 RMK AO2 SLP149 T02220139

More Conditions Fewer Conditions

Pressure 29.97 in
Visibility 10.0 miles
Clouds Clear
Heat Index 75 °F
Dew Point 60 °F
Humidity 66%
Rainfall 0.00 in
Snow Depth Not available.
UV 11 out of 12
Pollen 4.20 out of 12
Air Quality Not available.
Flu Activity No Activity
METAR KDDC 281652Z AUTO 09006KT 10SM CLR 22/14 A3003 RMK AO2 SLP149 T02220139

More Conditions Fewer Conditions

10-Day Weather Forecast

Almanac

Astronomy

May. 28, 2015 Rise Set
Actual Time
Civil Twilight
Nautical Twilight
Astronomical Twilight
Moon
Length of Visible Light
Length of Day
Tomorrow will be .
, % of the Moon is Illuminated

Today's Extremes

State Highs State Lows

Community

WunderPhotos

Upload Photos

1,825,007 photos uploaded!

WunderBlogs® & News

Nearby

Air Quality

  Air Quality AQ Index Pollutant
Not available.

Snow Depth

Station Depth Elevation

Earthquake Activity

City Distance Mag. Time & Date
Minimum magnitude displayed is 2.5.

Coastal Water Temperatures

Place Temperature

Stations

Nearby Weather Stations

Station Location Temp. Windchill Dew Point Humidity Wind Precip. Elev Updated Type
                   
Flash Flood Watch
Statement as of 12:06 PM CDT on May 28, 2015

... Flash Flood Watch remains in effect through Friday morning...

The Flash Flood Watch continues for

* portions of south central Kansas and southwest Kansas...
including the following areas... in south central Kansas...
Barber... Comanche... Edwards... Kiowa... Pawnee... Pratt and
Stafford. In southwest Kansas... Clark and Ford.

* Through Friday morning

* slow moving thunderstorms will produce localized torrential
rainfall on ground that is already saturated from previous
rains.

* Localized flooding of highways... streets and streams is
possible.

Precautionary/preparedness actions...

A Flash Flood Watch means that conditions may develop that lead
to flash flooding. Flash flooding is a very dangerous situation.

You should monitor later forecasts and be prepared to take action
should flash flood warnings be issued.